Time;durP1;ratioP1;P1;durP2;ratioP2;P2;SDS_P1;SDS_P2;PMS_P1;PMS_P2;Temp;Humidity;BMP_temperature;BMP_pressure;BME280_temperature;BME280_humidity;BME280_pressure;Samples;Min_cycle;Max_cycle;Signal;HPM_P1;HPM_P2
2023/09/22 00:01:00;;;;;;;1.13;0.63;;;20.60;66.70;;;;;;5006143;28;20448;-50
2023/09/22 00:03:29;;;;;;;1.13;0.80;;;20.60;66.50;;;;;;5010079;28;21023;-49
2023/09/22 00:05:58;;;;;;;1.30;0.83;;;20.60;66.60;;;;;;5006844;28;20445;-49
2023/09/22 00:08:26;;;;;;;1.30;0.70;;;20.60;66.50;;;;;;5007893;28;21123;-49
2023/09/22 00:10:56;;;;;;;1.07;0.77;;;20.60;66.50;;;;;;5008664;28;20437;-49
2023/09/22 00:13:24;;;;;;;2.17;1.07;;;20.60;66.40;;;;;;5015597;28;20507;-49
2023/09/22 00:15:52;;;;;;;1.53;1.00;;;20.60;66.70;;;;;;5008117;28;20503;-49
2023/09/22 00:18:20;;;;;;;1.10;0.97;;;20.60;66.60;;;;;;5017442;28;20468;-49
2023/09/22 00:20:48;;;;;;;0.90;0.70;;;20.60;66.50;;;;;;5015321;28;20545;-49
2023/09/22 00:23:16;;;;;;;1.50;1.03;;;20.60;66.50;;;;;;5014628;28;20495;-49
2023/09/22 00:25:44;;;;;;;1.40;0.80;;;20.60;66.00;;;;;;5015071;28;20437;-50
2023/09/22 00:28:15;;;;;;;1.57;0.93;;;20.60;66.30;;;;;;5011561;28;20538;-49
2023/09/22 00:30:44;;;;;;;1.33;1.10;;;20.60;66.30;;;;;;4997958;28;20538;-49
2023/09/22 00:33:12;;;;;;;1.10;1.00;;;20.60;66.20;;;;;;5015636;28;20479;-50
2023/09/22 00:35:40;;;;;;;1.17;0.87;;;20.60;66.10;;;;;;5010008;28;20472;-49
2023/09/22 00:38:10;;;;;;;1.30;1.10;;;20.60;66.20;;;;;;5013679;28;20468;-49
2023/09/22 00:40:39;;;;;;;1.53;1.10;;;20.50;66.00;;;;;;5019329;28;20450;-49
2023/09/22 00:43:09;;;;;;;0.90;0.60;;;20.50;66.00;;;;;;5010478;28;20784;-49
2023/09/22 00:45:43;;;;;;;1.50;1.27;;;20.50;66.30;;;;;;5013963;28;20453;-49
2023/09/22 00:48:20;;;;;;;1.40;1.00;;;20.50;66.10;;;;;;5019559;28;20471;-49
2023/09/22 00:50:49;;;;;;;1.13;0.60;;;20.50;66.10;;;;;;5014082;28;20535;-49
2023/09/22 00:53:18;;;;;;;3.03;1.03;;;20.50;66.20;;;;;;4995987;28;20476;-49
2023/09/22 00:55:49;;;;;;;1.27;0.90;;;20.50;66.20;;;;;;5016915;28;20476;-49
2023/09/22 00:58:17;;;;;;;1.60;0.80;;;20.50;66.10;;;;;;5010353;28;20479;-49
2023/09/22 01:00:48;;;;;;;0.90;0.50;;;20.50;66.00;;;;;;5017810;28;20484;-49
2023/09/22 01:03:17;;;;;;;2.37;0.90;;;20.50;66.00;;;;;;5016046;28;20510;-49
2023/09/22 01:05:47;;;;;;;1.10;0.80;;;20.50;66.00;;;;;;4988164;28;20528;-49
2023/09/22 01:08:16;;;;;;;2.43;0.90;;;20.50;66.20;;;;;;5022604;28;20473;-49
2023/09/22 01:10:44;;;;;;;1.43;0.90;;;20.50;66.30;;;;;;5021841;28;20551;-49
2023/09/22 01:13:12;;;;;;;0.90;0.63;;;20.50;66.30;;;;;;5020406;28;20992;-49
2023/09/22 01:15:42;;;;;;;1.30;0.90;;;20.50;66.20;;;;;;5011979;28;20464;-49
2023/09/22 01:18:14;;;;;;;1.43;0.90;;;20.50;66.20;;;;;;5023832;28;20478;-50
2023/09/22 01:20:43;;;;;;;1.00;0.77;;;20.50;66.10;;;;;;5017437;28;20454;-49
2023/09/22 01:23:14;;;;;;;1.10;0.70;;;20.50;66.10;;;;;;5019177;28;20551;-49
2023/09/22 01:25:43;;;;;;;1.20;0.77;;;20.50;65.80;;;;;;5002443;28;20850;-49
2023/09/22 01:28:11;;;;;;;1.30;0.80;;;20.50;65.70;;;;;;5017338;28;20456;-50
2023/09/22 01:30:40;;;;;;;1.13;0.87;;;20.50;65.90;;;;;;5013650;28;20447;-49
2023/09/22 01:33:09;;;;;;;2.00;0.73;;;20.50;65.70;;;;;;5017296;28;20527;-49
2023/09/22 01:35:38;;;;;;;1.47;0.80;;;20.50;65.60;;;;;;5011546;28;20480;-49
2023/09/22 01:38:12;;;;;;;1.07;0.77;;;20.40;65.50;;;;;;5017572;28;20820;-49
2023/09/22 01:40:42;;;;;;;1.60;0.83;;;20.40;65.50;;;;;;5020268;28;20463;-49
2023/09/22 01:43:11;;;;;;;1.50;0.90;;;20.40;65.90;;;;;;5013046;28;20483;-49
2023/09/22 01:45:39;;;;;;;1.63;0.90;;;20.40;65.60;;;;;;5015284;28;20503;-49
2023/09/22 01:48:08;;;;;;;1.40;0.90;;;20.40;65.30;;;;;;5023069;28;20458;-49
2023/09/22 01:50:37;;;;;;;1.00;0.80;;;20.40;65.80;;;;;;4997172;28;20465;-49
2023/09/22 01:53:08;;;;;;;1.10;0.67;;;20.40;65.70;;;;;;5022757;28;20607;-49
2023/09/22 01:55:36;;;;;;;1.20;0.90;;;20.40;64.80;;;;;;5019714;28;20533;-49
2023/09/22 01:58:07;;;;;;;1.27;0.77;;;20.40;64.90;;;;;;5001611;28;20873;-49
2023/09/22 02:00:35;;;;;;;1.23;0.90;;;20.40;64.80;;;;;;5001190;28;20441;-50
2023/09/22 02:03:05;;;;;;;2.17;1.10;;;20.40;65.20;;;;;;4998071;28;20569;-49
2023/09/22 02:05:35;;;;;;;3.03;1.10;;;20.40;64.90;;;;;;5015092;28;20437;-50
2023/09/22 02:08:03;;;;;;;1.53;0.90;;;20.40;65.20;;;;;;5020867;28;20551;-49
2023/09/22 02:10:31;;;;;;;1.10;0.77;;;20.40;65.50;;;;;;4999365;28;20446;-49
2023/09/22 02:12:59;;;;;;;1.23;0.80;;;20.40;65.70;;;;;;5019302;28;20471;-49
2023/09/22 02:15:29;;;;;;;1.33;0.87;;;20.40;65.20;;;;;;5019755;28;20464;-50
2023/09/22 02:17:58;;;;;;;1.73;0.70;;;20.40;65.30;;;;;;5015928;28;20433;-49
2023/09/22 02:20:26;;;;;;;1.17;0.80;;;20.30;65.10;;;;;;4996077;28;20532;-49
2023/09/22 02:22:56;;;;;;;1.10;0.80;;;20.30;64.90;;;;;;4996011;28;20468;-49
2023/09/22 02:25:25;;;;;;;1.23;0.80;;;20.30;64.80;;;;;;5012109;28;20449;-49
2023/09/22 02:27:54;;;;;;;1.80;0.90;;;20.30;65.10;;;;;;5018881;28;20949;-49
2023/09/22 02:30:24;;;;;;;1.03;0.70;;;20.30;65.10;;;;;;5011045;28;20787;-49
2023/09/22 02:32:55;;;;;;;1.10;0.80;;;20.30;65.00;;;;;;5015867;28;20492;-49
2023/09/22 02:35:23;;;;;;;2.60;0.90;;;20.30;65.20;;;;;;5016486;28;20463;-49
2023/09/22 02:37:51;;;;;;;1.70;0.80;;;20.30;64.20;;;;;;4998502;28;20468;-49
2023/09/22 02:40:20;;;;;;;1.10;0.90;;;20.30;64.90;;;;;;5019283;28;20466;-49
2023/09/22 02:42:48;;;;;;;1.70;0.87;;;20.30;64.20;;;;;;5014989;28;20456;-48
2023/09/22 02:45:16;;;;;;;1.63;1.00;;;20.30;64.60;;;;;;5015385;28;20454;-49
2023/09/22 02:47:45;;;;;;;1.57;1.10;;;20.30;64.50;;;;;;5017193;28;20474;-49
2023/09/22 02:50:18;;;;;;;4.87;1.00;;;20.20;64.40;;;;;;5010525;28;20445;-49
2023/09/22 02:52:47;;;;;;;1.77;1.17;;;20.20;64.10;;;;;;5014168;28;20463;-49
2023/09/22 02:55:16;;;;;;;1.07;0.93;;;20.20;64.80;;;;;;5015948;28;20460;-49
2023/09/22 02:57:46;;;;;;;1.97;0.90;;;20.20;64.80;;;;;;5016260;28;20439;-49
2023/09/22 03:00:17;;;;;;;1.27;0.70;;;20.20;64.50;;;;;;5014671;28;20537;-49
2023/09/22 03:02:48;;;;;;;1.27;0.73;;;20.20;64.70;;;;;;5012875;28;20522;-49
2023/09/22 03:05:18;;;;;;;1.10;0.70;;;20.20;64.60;;;;;;4997961;28;20452;-49
2023/09/22 03:07:51;;;;;;;1.20;0.97;;;20.20;64.50;;;;;;4997961;28;20447;-49
2023/09/22 03:10:20;;;;;;;1.60;0.63;;;20.20;64.60;;;;;;4991802;28;20441;-49
2023/09/22 03:12:51;;;;;;;1.00;0.60;;;20.20;64.70;;;;;;5014756;28;20582;-49
2023/09/22 03:15:21;;;;;;;1.30;0.97;;;20.20;64.30;;;;;;4989506;28;20453;-49
2023/09/22 03:17:49;;;;;;;2.20;1.00;;;20.20;64.90;;;;;;5011877;28;20436;-49
2023/09/22 03:20:20;;;;;;;1.77;0.93;;;20.20;64.80;;;;;;4990183;28;20503;-49
2023/09/22 03:22:49;;;;;;;2.30;1.07;;;20.20;64.70;;;;;;4993334;28;20470;-49
2023/09/22 03:25:17;;;;;;;0.97;0.60;;;20.20;64.30;;;;;;4995268;28;20526;-49
2023/09/22 03:27:45;;;;;;;1.10;0.87;;;20.20;64.30;;;;;;4996835;28;20554;-49
2023/09/22 03:30:18;;;;;;;1.83;0.80;;;20.20;64.70;;;;;;4989518;28;20457;-49
2023/09/22 03:32:47;;;;;;;2.47;0.70;;;20.20;64.70;;;;;;5000066;28;20492;-49
2023/09/22 03:35:16;;;;;;;2.10;0.97;;;20.10;64.30;;;;;;5013251;28;20561;-49
2023/09/22 03:37:48;;;;;;;1.30;0.70;;;20.20;64.00;;;;;;4995136;28;20458;-50
2023/09/22 03:40:32;;;;;;;1.83;1.00;;;20.10;64.70;;;;;;5002490;28;20441;-49
2023/09/22 03:43:01;;;;;;;1.10;0.73;;;20.10;64.40;;;;;;5016306;28;20453;-49
2023/09/22 03:45:29;;;;;;;1.83;0.70;;;20.10;64.20;;;;;;4998598;28;20480;-49
2023/09/22 03:47:58;;;;;;;1.40;1.03;;;20.10;64.40;;;;;;4994659;28;20429;-49
2023/09/22 03:50:26;;;;;;;1.67;0.90;;;20.10;64.30;;;;;;4990651;28;20537;-49
2023/09/22 03:52:55;;;;;;;1.53;1.00;;;20.10;64.60;;;;;;5013952;28;20449;-49
2023/09/22 03:55:24;;;;;;;2.13;0.80;;;20.10;64.60;;;;;;5018821;28;20444;-49
2023/09/22 03:57:52;;;;;;;2.93;0.87;;;20.10;64.40;;;;;;4994149;28;20565;-49
2023/09/22 04:00:27;;;;;;;1.20;0.70;;;20.10;66.00;;;;;;4993529;28;20867;-49
2023/09/22 04:02:56;;;;;;;1.30;0.90;;;20.10;64.60;;;;;;4997413;28;20468;-49
2023/09/22 04:05:24;;;;;;;2.47;1.17;;;20.10;65.00;;;;;;4990054;28;20473;-49
2023/09/22 04:07:54;;;;;;;2.50;1.10;;;20.10;64.80;;;;;;5010150;28;20467;-50
2023/09/22 04:10:23;;;;;;;1.50;0.97;;;20.00;64.80;;;;;;5009821;28;20463;-50
2023/09/22 04:12:51;;;;;;;1.27;0.50;;;20.10;64.60;;;;;;5012380;28;20996;-51
2023/09/22 04:15:23;;;;;;;2.00;0.93;;;20.00;64.60;;;;;;4994803;28;20440;-50
2023/09/22 04:17:51;;;;;;;1.30;0.80;;;20.00;64.80;;;;;;5007865;28;20477;-50
2023/09/22 04:20:28;;;;;;;1.23;0.90;;;20.00;64.80;;;;;;5010773;28;20456;-50
2023/09/22 04:22:58;;;;;;;1.70;0.80;;;20.10;65.10;;;;;;5010131;28;20510;-50
2023/09/22 04:25:34;;;;;;;1.30;0.90;;;20.00;64.70;;;;;;5012666;28;20516;-50
2023/09/22 04:28:11;;;;;;;0.90;0.50;;;20.00;64.80;;;;;;5012046;28;20984;-50
2023/09/22 04:30:40;;;;;;;1.77;0.90;;;20.00;64.90;;;;;;4994990;28;20892;-50
2023/09/22 04:33:10;;;;;;;1.23;0.87;;;20.00;64.60;;;;;;5009713;28;20457;-50
2023/09/22 04:35:40;;;;;;;1.10;0.60;;;20.00;64.70;;;;;;4994704;28;20452;-50
2023/09/22 04:38:10;;;;;;;1.40;0.77;;;20.00;64.80;;;;;;5014935;28;20491;-50
2023/09/22 04:40:40;;;;;;;1.40;0.90;;;20.00;64.40;;;;;;5013167;28;20874;-51
2023/09/22 04:43:08;;;;;;;1.33;0.90;;;20.00;64.40;;;;;;5010905;28;21016;-50
2023/09/22 04:45:38;;;;;;;1.30;0.97;;;20.00;64.60;;;;;;5012175;28;20457;-50
2023/09/22 04:48:06;;;;;;;1.07;0.57;;;20.00;64.50;;;;;;5013416;28;20861;-49
2023/09/22 04:50:35;;;;;;;1.30;0.97;;;19.90;64.40;;;;;;5010777;28;20941;-50
2023/09/22 04:53:04;;;;;;;1.67;1.20;;;19.90;64.50;;;;;;5008801;28;20476;-50
2023/09/22 04:55:35;;;;;;;1.20;0.80;;;20.00;64.70;;;;;;5005896;28;20440;-49
2023/09/22 04:58:07;;;;;;;1.00;0.60;;;20.00;64.80;;;;;;5006053;28;20467;-50
2023/09/22 05:00:36;;;;;;;1.40;0.80;;;20.00;64.80;;;;;;5005381;28;20459;-50
2023/09/22 05:03:05;;;;;;;1.00;0.77;;;19.90;64.70;;;;;;5008033;28;20464;-50
2023/09/22 05:05:34;;;;;;;1.87;0.70;;;19.90;64.70;;;;;;5016662;28;20876;-50
2023/09/22 05:08:03;;;;;;;1.90;0.80;;;20.00;64.80;;;;;;5015664;28;20433;-50
2023/09/22 05:10:31;;;;;;;2.30;0.80;;;19.90;64.20;;;;;;5017870;28;20433;-49
2023/09/22 05:13:00;;;;;;;1.53;1.10;;;19.90;64.70;;;;;;5013927;28;21016;-50
2023/09/22 05:15:30;;;;;;;2.20;1.17;;;19.90;63.90;;;;;;5009961;28;20459;-50
2023/09/22 05:17:58;;;;;;;1.00;0.70;;;19.90;64.70;;;;;;5010816;28;20490;-50
2023/09/22 05:20:26;;;;;;;1.33;0.70;;;19.90;64.70;;;;;;5014616;28;20532;-50
2023/09/22 05:22:54;;;;;;;1.20;0.60;;;19.90;65.90;;;;;;5012126;28;20461;-50
2023/09/22 05:25:22;;;;;;;1.83;0.70;;;19.90;64.80;;;;;;5018356;28;20815;-50
2023/09/22 05:27:51;;;;;;;1.00;0.70;;;19.90;65.00;;;;;;5011178;28;20921;-50
2023/09/22 05:30:21;;;;;;;1.93;0.80;;;19.90;64.70;;;;;;5015836;28;20436;-50
2023/09/22 05:32:51;;;;;;;1.13;0.73;;;19.90;65.00;;;;;;5013369;28;20464;-50
2023/09/22 05:35:20;;;;;;;1.40;0.80;;;19.90;64.70;;;;;;5012425;28;20532;-50
2023/09/22 05:37:52;;;;;;;1.60;0.97;;;19.90;64.90;;;;;;5013293;28;20856;-50
2023/09/22 05:40:20;;;;;;;1.50;0.70;;;19.90;64.70;;;;;;5015892;28;20440;-50
2023/09/22 05:42:48;;;;;;;2.20;0.80;;;19.90;64.90;;;;;;5014604;28;20452;-49
2023/09/22 05:45:17;;;;;;;1.20;0.70;;;19.90;64.90;;;;;;5011984;28;20453;-50
2023/09/22 05:47:45;;;;;;;1.40;0.80;;;19.90;64.80;;;;;;5017713;28;20429;-50
2023/09/22 05:50:14;;;;;;;0.80;0.70;;;19.90;64.50;;;;;;4991272;28;20475;-50
2023/09/22 05:52:42;;;;;;;1.53;0.80;;;19.80;64.50;;;;;;5010277;28;20457;-50
2023/09/22 05:55:12;;;;;;;1.40;0.83;;;19.80;64.70;;;;;;5012547;28;20544;-50
2023/09/22 05:57:41;;;;;;;2.90;1.70;;;19.80;64.90;;;;;;5014994;28;20500;-50
2023/09/22 06:00:15;;;;;;;2.40;0.80;;;19.80;64.70;;;;;;5014487;28;20548;-50
2023/09/22 06:02:49;;;;;;;1.97;1.10;;;19.80;64.90;;;;;;5011517;28;20467;-50
2023/09/22 06:05:22;;;;;;;1.33;0.90;;;19.80;64.70;;;;;;4989996;28;20468;-50
2023/09/22 06:07:51;;;;;;;1.30;0.73;;;19.80;64.70;;;;;;5017622;28;20850;-50
2023/09/22 06:10:19;;;;;;;2.10;1.30;;;19.80;64.80;;;;;;5015824;28;20449;-50
2023/09/22 06:12:47;;;;;;;1.63;1.00;;;19.80;66.00;;;;;;5013691;28;20466;-50
2023/09/22 06:15:15;;;;;;;2.50;1.00;;;19.80;64.70;;;;;;5015880;28;20536;-50
2023/09/22 06:17:46;;;;;;;0.90;0.80;;;19.80;64.80;;;;;;5011329;28;20832;-50
2023/09/22 06:20:15;;;;;;;1.20;0.70;;;19.80;64.90;;;;;;5011747;28;20496;-50
2023/09/22 06:22:49;;;;;;;0.90;0.60;;;19.80;64.70;;;;;;5014245;28;20558;-50
2023/09/22 06:25:18;;;;;;;1.40;0.80;;;19.80;64.70;;;;;;5017495;28;20464;-50
2023/09/22 06:27:47;;;;;;;1.23;0.83;;;19.80;65.00;;;;;;5016547;28;20467;-50
2023/09/22 06:30:18;;;;;;;1.13;0.77;;;19.80;64.80;;;;;;5014065;28;20476;-49
2023/09/22 06:32:47;;;;;;;1.30;0.70;;;19.80;64.90;;;;;;5017622;28;20461;-50
2023/09/22 06:35:15;;;;;;;1.90;0.70;;;19.80;64.80;;;;;;5016063;28;20514;-50
2023/09/22 06:37:45;;;;;;;2.57;1.03;;;19.80;64.70;;;;;;4993440;28;20943;-50
2023/09/22 06:40:15;;;;;;;1.70;0.80;;;19.70;64.80;;;;;;5011970;28;20463;-50
2023/09/22 06:42:44;;;;;;;1.00;0.60;;;19.80;64.90;;;;;;5013746;28;20468;-50
2023/09/22 06:45:15;;;;;;;1.10;0.70;;;19.80;65.00;;;;;;5014597;28;20449;-50
2023/09/22 06:47:44;;;;;;;1.10;0.63;;;19.70;64.90;;;;;;5018953;28;20518;-50
2023/09/22 06:50:13;;;;;;;1.10;0.73;;;19.70;64.80;;;;;;5012643;28;20465;-50
2023/09/22 06:52:42;;;;;;;1.50;0.80;;;19.70;65.00;;;;;;5020062;28;20846;-50
2023/09/22 06:55:13;;;;;;;1.67;0.60;;;;;;;;;;5020442;28;21099;-50
2023/09/22 06:57:43;;;;;;;0.80;0.50;;;19.80;63.40;;;;;;5018265;28;20476;-49
2023/09/22 07:00:18;;;;;;;2.40;0.80;;;19.70;64.30;;;;;;5014358;28;20500;-50
2023/09/22 07:02:49;;;;;;;1.00;0.70;;;19.70;65.40;;;;;;5016101;28;20480;-50
2023/09/22 07:05:19;;;;;;;1.60;0.67;;;19.70;64.30;;;;;;5012127;28;20447;-49
2023/09/22 07:07:49;;;;;;;0.90;0.60;;;19.70;64.60;;;;;;5015027;28;20429;-50
2023/09/22 07:10:20;;;;;;;2.10;1.00;;;19.70;64.80;;;;;;5012832;28;20772;-50
2023/09/22 07:12:48;;;;;;;1.93;0.70;;;19.60;65.70;;;;;;5009322;28;20472;-50
2023/09/22 07:15:17;;;;;;;1.20;0.77;;;19.60;64.00;;;;;;5015793;28;21209;-50
2023/09/22 07:17:45;;;;;;;1.77;0.63;;;19.60;64.10;;;;;;5014816;28;20457;-50
2023/09/22 07:20:14;;;;;;;2.33;1.00;;;19.60;63.80;;;;;;4996449;28;20464;-50
2023/09/22 07:22:43;;;;;;;1.00;0.50;;;19.60;63.60;;;;;;5013311;28;20472;-50
2023/09/22 07:25:12;;;;;;;1.13;0.77;;;19.60;63.50;;;;;;5014921;28;20456;-50
2023/09/22 07:27:44;;;;;;;1.60;0.80;;;19.70;63.60;;;;;;5014405;28;20451;-50
2023/09/22 07:30:13;;;;;;;1.60;0.93;;;19.60;64.70;;;;;;5012031;28;20481;-50
2023/09/22 07:32:41;;;;;;;1.30;0.70;;;19.70;63.60;;;;;;5014984;28;20457;-50
2023/09/22 07:35:10;;;;;;;1.90;0.63;;;19.70;63.90;;;;;;5012289;28;20473;-50
2023/09/22 07:37:38;;;;;;;0.90;0.50;;;19.70;64.20;;;;;;5017259;28;20972;-49
2023/09/22 07:40:08;;;;;;;1.43;0.70;;;19.70;64.40;;;;;;5014448;28;20465;-49
2023/09/22 07:42:41;;;;;;;1.07;0.67;;;19.70;64.10;;;;;;5015393;28;20464;-49
2023/09/22 07:45:12;;;;;;;0.90;0.70;;;19.70;64.20;;;;;;5008199;28;20996;-49
2023/09/22 07:47:41;;;;;;;0.93;0.80;;;19.70;63.90;;;;;;5011253;28;20480;-49
2023/09/22 07:50:11;;;;;;;2.10;1.00;;;19.70;64.20;;;;;;5007032;28;20539;-49
2023/09/22 07:52:42;;;;;;;1.63;0.83;;;19.70;64.50;;;;;;5014202;28;20452;-50
2023/09/22 07:55:14;;;;;;;1.83;0.90;;;19.70;64.30;;;;;;5017121;28;20472;-50
2023/09/22 07:57:46;;;;;;;3.30;0.80;;;19.70;63.60;;;;;;5016039;28;20444;-50
2023/09/22 08:00:19;;;;;;;3.83;0.90;;;19.70;63.60;;;;;;5005096;28;20469;-49
2023/09/22 08:02:49;;;;;;;2.85;1.20;;;19.70;61.20;;;;;;5008875;28;20465;-49
2023/09/22 08:05:18;;;;;;;1.83;1.13;;;19.60;61.50;;;;;;5005341;28;20224;-49
2023/09/22 08:07:47;;;;;;;2.10;1.20;;;19.60;62.30;;;;;;5008908;28;20456;-49
2023/09/22 08:10:15;;;;;;;3.67;1.10;;;19.60;62.70;;;;;;5009956;28;20451;-49
2023/09/22 08:12:44;;;;;;;1.63;0.87;;;19.60;63.40;;;;;;5004541;28;21058;-49
2023/09/22 08:15:14;;;;;;;1.47;0.90;;;19.60;63.50;;;;;;5017013;28;20543;-49
2023/09/22 08:17:47;;;;;;;1.63;1.00;;;19.60;63.50;;;;;;4991577;28;21009;-50
2023/09/22 08:20:15;;;;;;;1.77;0.90;;;19.70;63.60;;;;;;5008867;28;20461;-49
2023/09/22 08:22:44;;;;;;;1.53;1.00;;;19.70;63.60;;;;;;5013563;28;20964;-49
2023/09/22 08:25:12;;;;;;;1.87;0.80;;;19.70;63.60;;;;;;5011877;28;20476;-49
2023/09/22 08:27:40;;;;;;;2.17;0.90;;;19.70;63.60;;;;;;5013181;28;20523;-49
2023/09/22 08:30:12;;;;;;;1.40;1.00;;;19.70;63.60;;;;;;5011510;28;21158;-49
2023/09/22 08:32:42;;;;;;;1.43;0.90;;;19.70;63.60;;;;;;5012617;28;20449;-49
2023/09/22 08:35:13;;;;;;;1.20;1.00;;;19.70;63.60;;;;;;5008639;28;20979;-49
2023/09/22 08:37:42;;;;;;;2.20;1.03;;;19.70;63.60;;;;;;5018583;28;20440;-50
2023/09/22 08:40:14;;;;;;;1.23;0.80;;;19.70;63.60;;;;;;5016905;28;20473;-49
2023/09/22 08:42:44;;;;;;;1.70;0.70;;;19.80;63.60;;;;;;5017920;28;20436;-48
2023/09/22 08:45:13;;;;;;;1.40;1.00;;;19.80;63.70;;;;;;5014136;28;20876;-49
2023/09/22 08:47:45;;;;;;;1.30;0.80;;;19.80;63.70;;;;;;5013596;28;20439;-49
2023/09/22 08:50:16;;;;;;;1.40;0.83;;;19.80;63.60;;;;;;5010384;28;20469;-49
2023/09/22 08:52:45;;;;;;;1.40;1.00;;;19.80;63.50;;;;;;5017066;28;20972;-49
2023/09/22 08:55:15;;;;;;;1.57;0.70;;;19.80;63.60;;;;;;5013992;28;20457;-49
2023/09/22 08:57:46;;;;;;;1.47;0.87;;;19.80;63.60;;;;;;5013573;28;20488;-49
2023/09/22 09:00:18;;;;;;;1.57;0.90;;;19.80;63.50;;;;;;5014378;28;20469;-49
2023/09/22 09:02:47;;;;;;;1.00;0.80;;;19.80;63.00;;;;;;5016917;28;20517;-49
2023/09/22 09:05:22;;;;;;;1.00;0.77;;;19.80;63.60;;;;;;5008232;28;20477;-49
2023/09/22 09:07:51;;;;;;;2.17;1.20;;;19.80;63.30;;;;;;5011949;28;20490;-49
2023/09/22 09:10:27;;;;;;;0.90;0.53;;;19.80;63.30;;;;;;5009203;28;20433;-49
2023/09/22 09:12:55;;;;;;;1.30;0.83;;;19.80;63.60;;;;;;5008256;28;20477;-49
2023/09/22 09:15:26;;;;;;;1.27;0.97;;;19.80;63.60;;;;;;5013595;28;20443;-49
2023/09/22 09:18:05;;;;;;;1.27;0.80;;;19.80;63.50;;;;;;5013002;28;20437;-49
2023/09/22 09:20:37;;;;;;;1.60;0.80;;;19.80;63.60;;;;;;5009351;28;21052;-49
2023/09/22 09:23:13;;;;;;;1.70;0.80;;;19.80;63.30;;;;;;4997814;28;20461;-49
2023/09/22 09:25:46;;;;;;;1.00;0.80;;;19.80;63.00;;;;;;5013610;28;20821;-49
2023/09/22 09:28:16;;;;;;;1.07;0.67;;;19.80;63.30;;;;;;5014621;28;20476;-49
2023/09/22 09:30:50;;;;;;;2.07;0.67;;;19.80;63.50;;;;;;5011704;28;20835;-49
2023/09/22 09:33:20;;;;;;;1.33;0.80;;;19.80;62.80;;;;;;5017509;28;20844;-49
2023/09/22 09:35:52;;;;;;;1.00;0.70;;;19.80;63.50;;;;;;5013711;28;20475;-49
2023/09/22 09:38:21;;;;;;;1.37;1.10;;;19.80;63.20;;;;;;5011557;28;20487;-49
2023/09/22 09:40:52;;;;;;;1.93;0.90;;;19.70;63.60;;;;;;5014288;28;20476;-49
2023/09/22 09:43:21;;;;;;;1.50;0.80;;;19.70;63.60;;;;;;5015214;28;20476;-49
2023/09/22 09:45:50;;;;;;;1.13;0.73;;;19.70;63.60;;;;;;5007743;28;20533;-49
2023/09/22 09:48:21;;;;;;;2.10;0.77;;;19.70;63.60;;;;;;5010340;28;20534;-49
2023/09/22 09:50:51;;;;;;;1.23;0.87;;;19.70;63.60;;;;;;5010811;28;20929;-49
2023/09/22 09:53:31;;;;;;;0.90;0.60;;;19.70;63.60;;;;;;5017253;28;20841;-49
2023/09/22 09:56:00;;;;;;;1.33;1.23;;;19.70;63.60;;;;;;5013108;28;20441;-49
2023/09/22 09:58:30;;;;;;;1.77;0.80;;;19.70;63.60;;;;;;5014043;28;20486;-49
2023/09/22 10:01:01;;;;;;;0.97;0.47;;;19.70;63.60;;;;;;5020289;28;20476;-49
2023/09/22 10:03:29;;;;;;;1.40;0.60;;;19.70;63.60;;;;;;5015144;28;20531;-49
2023/09/22 10:05:59;;;;;;;1.73;0.87;;;19.70;63.60;;;;;;5008507;28;20459;-49
2023/09/22 10:08:28;;;;;;;0.97;0.70;;;19.70;63.60;;;;;;5015373;28;20737;-49
2023/09/22 10:10:59;;;;;;;1.20;0.70;;;19.70;63.60;;;;;;5016564;28;21071;-49
2023/09/22 10:13:28;;;;;;;1.63;0.70;;;19.70;63.60;;;;;;5016283;28;20998;-49
2023/09/22 10:15:58;;;;;;;1.07;0.73;;;19.60;63.50;;;;;;5014173;28;20436;-49
2023/09/22 10:18:49;;;;;;;1.33;0.83;;;19.70;63.60;;;;;;5019084;28;21067;-49
2023/09/22 10:21:45;;;;;;;1.10;0.60;;;19.60;63.50;;;;;;5008951;28;20554;-49
2023/09/22 10:24:23;;;;;;;1.63;1.13;;;19.60;63.50;;;;;;5016565;28;20478;-49
2023/09/22 10:27:14;;;;;;;1.10;0.80;;;19.60;63.50;;;;;;5018447;28;21132;-49
2023/09/22 10:29:51;;;;;;;1.00;0.70;;;19.60;63.50;;;;;;5016088;28;20463;-49
2023/09/22 10:32:26;;;;;;;1.50;0.70;;;19.60;63.50;;;;;;5014091;28;20468;-49
2023/09/22 10:34:57;;;;;;;2.30;0.70;;;19.60;63.50;;;;;;5012224;28;20473;-49
2023/09/22 10:37:28;;;;;;;1.70;0.70;;;19.60;63.50;;;;;;5011921;28;20441;-49
2023/09/22 10:39:57;;;;;;;0.73;0.47;;;19.60;63.50;;;;;;5009489;28;20476;-49
2023/09/22 10:42:27;;;;;;;1.20;0.73;;;19.60;63.60;;;;;;5016341;28;20461;-49
2023/09/22 10:45:00;;;;;;;1.40;0.60;;;19.60;63.60;;;;;;5008062;28;20477;-49
2023/09/22 10:47:39;;;;;;;1.07;0.60;;;19.60;63.50;;;;;;5012346;28;20446;-49
2023/09/22 10:50:12;;;;;;;1.20;0.83;;;19.60;63.50;;;;;;5008474;28;20559;-50
2023/09/22 10:52:50;;;;;;;1.90;0.80;;;19.60;63.50;;;;;;5013505;28;20469;-49
2023/09/22 10:55:31;;;;;;;1.23;0.70;;;19.60;62.30;;;;;;5013856;28;20456;-49
2023/09/22 10:58:00;;;;;;;2.00;1.10;;;19.60;62.70;;;;;;5010854;28;20879;-49
2023/09/22 11:00:29;;;;;;;1.77;0.73;;;19.60;63.50;;;;;;5018051;28;21004;-49
2023/09/22 11:03:05;;;;;;;1.20;0.80;;;19.60;63.50;;;;;;5010482;28;20962;-49
2023/09/22 11:05:34;;;;;;;1.43;0.80;;;19.60;63.50;;;;;;5009886;28;21200;-49
2023/09/22 11:08:12;;;;;;;1.33;0.80;;;19.60;63.50;;;;;;5008973;28;20507;-49
2023/09/22 11:10:43;;;;;;;1.47;0.80;;;19.60;63.40;;;;;;5016982;28;20534;-49
2023/09/22 11:13:13;;;;;;;2.17;1.10;;;19.60;63.20;;;;;;5017226;28;20480;-49
2023/09/22 11:15:49;;;;;;;1.37;0.83;;;19.60;64.40;;;;;;5012366;28;21029;-49
2023/09/22 11:18:22;;;;;;;0.97;0.70;;;19.60;63.10;;;;;;5002371;28;20870;-50
2023/09/22 11:20:56;;;;;;;1.10;0.90;;;19.60;63.50;;;;;;5010462;28;20497;-49
2023/09/22 11:23:26;;;;;;;1.20;0.77;;;19.60;63.50;;;;;;5015500;28;20464;-49
2023/09/22 11:26:00;;;;;;;1.43;0.90;;;19.60;63.50;;;;;;5016671;28;20543;-49
2023/09/22 11:28:28;;;;;;;2.00;0.73;;;19.60;63.50;;;;;;5013460;28;20476;-49
2023/09/22 11:31:06;;;;;;;1.53;0.80;;;19.60;63.50;;;;;;5017506;28;20524;-49
2023/09/22 11:33:36;;;;;;;1.30;0.70;;;19.60;63.60;;;;;;5015117;28;20491;-49
2023/09/22 11:36:05;;;;;;;1.50;1.10;;;19.60;63.50;;;;;;5012654;28;20445;-49
2023/09/22 11:38:39;;;;;;;1.27;0.90;;;19.60;63.50;;;;;;5013586;28;20887;-49
2023/09/22 11:41:09;;;;;;;1.83;0.83;;;19.60;63.50;;;;;;5005819;28;20475;-49
2023/09/22 11:43:42;;;;;;;1.67;0.77;;;19.60;58.10;;;;;;5008473;28;20477;-49
2023/09/22 11:46:10;;;;;;;4.93;1.23;;;19.50;59.10;;;;;;5014155;28;20441;-50
2023/09/22 11:48:57;;;;;;;1.43;1.00;;;19.60;58.10;;;;;;4998059;28;20507;-49
2023/09/22 11:51:43;;;;;;;2.13;1.37;;;19.60;58.20;;;;;;4987962;28;20447;-49
2023/09/22 11:54:14;;;;;;;3.73;0.80;;;19.60;58.90;;;;;;5017982;28;20483;-49
2023/09/22 11:56:46;;;;;;;1.27;0.77;;;19.60;59.70;;;;;;5006608;28;20456;-49
2023/09/22 11:59:17;;;;;;;1.90;1.57;;;19.60;59.80;;;;;;5008063;28;20480;-50
2023/09/22 12:01:47;;;;;;;1.50;1.17;;;19.60;60.20;;;;;;5012015;28;20993;-50
2023/09/22 12:04:16;;;;;;;2.40;1.03;;;19.60;60.30;;;;;;5007036;28;20578;-49
2023/09/22 12:06:44;;;;;;;1.67;1.03;;;19.60;59.80;;;;;;4998203;28;20449;-49
2023/09/22 12:09:14;;;;;;;1.33;0.97;;;19.60;59.90;;;;;;5016058;28;20464;-49
2023/09/22 12:11:43;;;;;;;1.37;1.00;;;19.60;60.50;;;;;;5013584;28;20425;-49
2023/09/22 12:14:11;;;;;;;4.00;1.20;;;19.60;60.40;;;;;;5013004;28;20464;-49
2023/09/22 12:16:40;;;;;;;1.40;0.80;;;19.70;59.70;;;;;;5011968;28;20490;-49
2023/09/22 12:19:09;;;;;;;1.40;1.00;;;19.70;60.40;;;;;;5013764;28;20464;-49
2023/09/22 12:21:37;;;;;;;2.47;1.00;;;19.70;60.70;;;;;;5014030;28;20504;-49
2023/09/22 12:24:06;;;;;;;1.20;0.80;;;19.70;60.80;;;;;;5015505;28;21093;-49
2023/09/22 12:26:35;;;;;;;1.53;1.07;;;19.70;60.90;;;;;;5015844;28;20907;-49
2023/09/22 12:29:05;;;;;;;1.40;0.83;;;19.70;61.00;;;;;;5010577;28;20500;-49
2023/09/22 12:31:34;;;;;;;1.30;1.00;;;19.70;60.90;;;;;;5010463;28;21202;-49
2023/09/22 12:34:03;;;;;;;1.40;0.73;;;19.70;60.80;;;;;;5014472;28;20464;-49
2023/09/22 12:36:31;;;;;;;1.10;0.90;;;19.70;60.80;;;;;;5014424;28;20447;-49
2023/09/22 12:38:59;;;;;;;1.00;0.80;;;19.80;60.90;;;;;;5013321;28;20469;-49
2023/09/22 12:41:27;;;;;;;1.93;1.20;;;19.80;61.00;;;;;;5017251;28;20448;-49
2023/09/22 12:43:57;;;;;;;0.80;0.60;;;19.80;61.00;;;;;;5015574;28;20976;-49
2023/09/22 12:46:25;;;;;;;0.97;0.80;;;19.80;61.10;;;;;;5017988;28;20420;-49
2023/09/22 12:48:53;;;;;;;1.20;0.80;;;19.80;60.90;;;;;;5018399;28;20468;-49
2023/09/22 12:51:21;;;;;;;2.83;1.20;;;19.80;60.50;;;;;;5008568;28;20814;-49
2023/09/22 12:53:50;;;;;;;1.23;0.93;;;19.80;60.30;;;;;;5008074;28;21037;-49
2023/09/22 12:56:18;;;;;;;1.57;1.03;;;19.80;60.80;;;;;;5011867;28;20503;-49
2023/09/22 12:58:46;;;;;;;3.37;0.83;;;19.80;60.20;;;;;;5012394;28;21020;-49
2023/09/22 13:01:15;;;;;;;1.00;0.80;;;19.80;60.30;;;;;;4986911;28;20469;-49
2023/09/22 13:03:45;;;;;;;1.93;1.27;;;19.80;60.60;;;;;;5009769;28;20499;-49